sensor_id;sensor_type;location;lat;lon;timestamp;P1;durP1;ratioP1;P2;durP2;ratioP2
40601;SDS011;26310;50.278;19.032;2023-03-21T00:01:26;16.90;;;10.70;;
40601;SDS011;26310;50.278;19.032;2023-03-21T00:06:29;17.77;;;9.03;;
40601;SDS011;26310;50.278;19.032;2023-03-21T00:11:32;17.87;;;10.07;;
40601;SDS011;26310;50.278;19.032;2023-03-21T00:16:34;27.03;;;12.90;;
40601;SDS011;26310;50.278;19.032;2023-03-21T00:21:40;24.03;;;13.43;;
40601;SDS011;26310;50.278;19.032;2023-03-21T00:27:03;25.57;;;13.00;;
40601;SDS011;26310;50.278;19.032;2023-03-21T05:35:51;20.97;;;11.23;;
40601;SDS011;26310;50.278;19.032;2023-03-21T05:40:54;23.07;;;12.63;;
40601;SDS011;26310;50.278;19.032;2023-03-21T05:45:58;24.53;;;10.80;;
40601;SDS011;26310;50.278;19.032;2023-03-21T05:51:01;20.87;;;11.20;;
40601;SDS011;26310;50.278;19.032;2023-03-21T05:56:05;27.00;;;10.67;;
40601;SDS011;26310;50.278;19.032;2023-03-21T06:01:08;27.70;;;12.30;;
40601;SDS011;26310;50.278;19.032;2023-03-21T06:06:11;20.00;;;10.83;;
40601;SDS011;26310;50.278;19.032;2023-03-21T06:11:25;26.80;;;11.70;;
40601;SDS011;26310;50.278;19.032;2023-03-21T06:16:32;21.23;;;13.73;;
40601;SDS011;26310;50.278;19.032;2023-03-21T06:21:35;27.10;;;12.17;;
40601;SDS011;26310;50.278;19.032;2023-03-21T06:26:38;22.03;;;12.17;;
40601;SDS011;26310;50.278;19.032;2023-03-21T06:31:43;23.00;;;11.83;;
40601;SDS011;26310;50.278;19.032;2023-03-21T06:36:46;26.00;;;10.50;;
40601;SDS011;26310;50.278;19.032;2023-03-21T06:41:48;21.67;;;10.37;;
40601;SDS011;26310;50.278;19.032;2023-03-21T06:46:51;18.77;;;11.03;;
40601;SDS011;26310;50.278;19.032;2023-03-21T06:51:55;18.53;;;10.07;;
40601;SDS011;26310;50.278;19.032;2023-03-21T06:56:57;20.20;;;9.77;;
40601;SDS011;26310;50.278;19.032;2023-03-21T07:02:00;13.60;;;8.20;;
40601;SDS011;26310;50.278;19.032;2023-03-21T07:07:03;18.07;;;9.60;;
40601;SDS011;26310;50.278;19.032;2023-03-21T07:12:06;16.50;;;9.27;;
40601;SDS011;26310;50.278;19.032;2023-03-21T07:17:09;18.13;;;9.83;;
40601;SDS011;26310;50.278;19.032;2023-03-21T07:22:12;17.37;;;9.53;;
40601;SDS011;26310;50.278;19.032;2023-03-21T07:27:15;14.87;;;9.20;;
40601;SDS011;26310;50.278;19.032;2023-03-21T07:32:18;16.43;;;9.60;;
40601;SDS011;26310;50.278;19.032;2023-03-21T07:37:21;16.97;;;9.50;;
40601;SDS011;26310;50.278;19.032;2023-03-21T07:42:24;16.10;;;9.57;;
40601;SDS011;26310;50.278;19.032;2023-03-21T07:47:27;17.37;;;9.40;;
40601;SDS011;26310;50.278;19.032;2023-03-21T07:52:30;19.00;;;10.20;;
40601;SDS011;26310;50.278;19.032;2023-03-21T07:57:33;21.07;;;11.50;;
40601;SDS011;26310;50.278;19.032;2023-03-21T08:02:37;17.87;;;10.87;;
40601;SDS011;26310;50.278;19.032;2023-03-21T08:07:40;18.43;;;11.50;;
40601;SDS011;26310;50.278;19.032;2023-03-21T08:12:43;16.30;;;10.00;;
40601;SDS011;26310;50.278;19.032;2023-03-21T08:17:46;19.17;;;10.63;;
40601;SDS011;26310;50.278;19.032;2023-03-21T08:22:49;20.07;;;10.80;;
40601;SDS011;26310;50.278;19.032;2023-03-21T08:27:52;28.07;;;9.87;;
40601;SDS011;26310;50.278;19.032;2023-03-21T08:32:55;17.93;;;10.33;;
40601;SDS011;26310;50.278;19.032;2023-03-21T08:38:02;17.40;;;11.47;;
40601;SDS011;26310;50.278;19.032;2023-03-21T08:43:05;18.17;;;9.90;;
40601;SDS011;26310;50.278;19.032;2023-03-21T08:48:08;20.67;;;10.90;;
40601;SDS011;26310;50.278;19.032;2023-03-21T08:53:11;14.87;;;9.23;;
40601;SDS011;26310;50.278;19.032;2023-03-21T08:58:14;16.50;;;10.07;;
40601;SDS011;26310;50.278;19.032;2023-03-21T09:03:17;19.93;;;10.63;;
40601;SDS011;26310;50.278;19.032;2023-03-21T09:08:21;22.93;;;12.13;;
40601;SDS011;26310;50.278;19.032;2023-03-21T09:13:24;18.23;;;9.73;;
40601;SDS011;26310;50.278;19.032;2023-03-21T09:18:27;22.37;;;11.37;;
40601;SDS011;26310;50.278;19.032;2023-03-21T09:23:48;21.43;;;11.80;;
40601;SDS011;26310;50.278;19.032;2023-03-21T09:28:54;22.30;;;10.43;;
40601;SDS011;26310;50.278;19.032;2023-03-21T09:33:57;21.43;;;11.50;;
40601;SDS011;26310;50.278;19.032;2023-03-21T09:39:00;21.03;;;11.30;;
40601;SDS011;26310;50.278;19.032;2023-03-21T09:49:45;26.73;;;12.93;;
40601;SDS011;26310;50.278;19.032;2023-03-21T09:55:16;29.63;;;13.43;;
40601;SDS011;26310;50.278;19.032;2023-03-21T10:00:31;18.40;;;10.90;;
40601;SDS011;26310;50.278;19.032;2023-03-21T10:05:37;17.20;;;8.43;;
40601;SDS011;26310;50.278;19.032;2023-03-21T10:10:52;16.27;;;9.80;;
40601;SDS011;26310;50.278;19.032;2023-03-21T10:16:09;25.50;;;9.83;;
40601;SDS011;26310;50.278;19.032;2023-03-21T10:21:19;14.67;;;8.97;;
40601;SDS011;26310;50.278;19.032;2023-03-21T10:26:47;17.53;;;10.40;;
40601;SDS011;26310;50.278;19.032;2023-03-21T10:31:51;20.07;;;10.07;;
40601;SDS011;26310;50.278;19.032;2023-03-21T10:36:54;23.03;;;10.30;;
40601;SDS011;26310;50.278;19.032;2023-03-21T10:41:57;16.30;;;9.20;;
40601;SDS011;26310;50.278;19.032;2023-03-21T10:47:07;20.87;;;10.10;;
40601;SDS011;26310;50.278;19.032;2023-03-21T10:52:10;15.10;;;8.87;;
40601;SDS011;26310;50.278;19.032;2023-03-21T10:57:20;15.20;;;9.43;;
40601;SDS011;26310;50.278;19.032;2023-03-21T11:02:31;16.83;;;8.73;;
40601;SDS011;26310;50.278;19.032;2023-03-21T11:07:36;22.03;;;10.77;;
40601;SDS011;26310;50.278;19.032;2023-03-21T11:12:39;22.33;;;11.50;;
40601;SDS011;26310;50.278;19.032;2023-03-21T11:17:43;16.87;;;9.73;;
40601;SDS011;26310;50.278;19.032;2023-03-21T11:22:48;19.00;;;8.93;;
40601;SDS011;26310;50.278;19.032;2023-03-21T11:27:52;16.70;;;10.23;;
40601;SDS011;26310;50.278;19.032;2023-03-21T11:32:56;20.47;;;10.57;;
40601;SDS011;26310;50.278;19.032;2023-03-21T11:38:04;21.23;;;10.63;;
40601;SDS011;26310;50.278;19.032;2023-03-21T11:48:19;16.30;;;8.23;;
40601;SDS011;26310;50.278;19.032;2023-03-21T11:59:03;13.93;;;8.20;;
40601;SDS011;26310;50.278;19.032;2023-03-21T12:20:58;17.83;;;7.73;;
40601;SDS011;26310;50.278;19.032;2023-03-21T12:26:24;15.67;;;8.33;;
40601;SDS011;26310;50.278;19.032;2023-03-21T12:47:44;13.77;;;7.80;;
40601;SDS011;26310;50.278;19.032;2023-03-21T12:52:53;16.30;;;9.10;;
40601;SDS011;26310;50.278;19.032;2023-03-21T12:58:03;19.23;;;9.30;;
40601;SDS011;26310;50.278;19.032;2023-03-21T13:08:41;16.63;;;9.77;;
40601;SDS011;26310;50.278;19.032;2023-03-21T13:19:03;21.97;;;12.03;;
40601;SDS011;26310;50.278;19.032;2023-03-21T13:29:40;13.63;;;9.23;;
40601;SDS011;26310;50.278;19.032;2023-03-21T13:34:54;14.67;;;8.20;;
40601;SDS011;26310;50.278;19.032;2023-03-21T13:39:59;13.63;;;7.27;;
40601;SDS011;26310;50.278;19.032;2023-03-21T13:45:09;13.60;;;7.93;;
40601;SDS011;26310;50.278;19.032;2023-03-21T13:50:25;16.30;;;8.80;;
40601;SDS011;26310;50.278;19.032;2023-03-21T13:55:30;20.40;;;9.73;;
40601;SDS011;26310;50.278;19.032;2023-03-21T14:00:42;18.27;;;9.50;;
40601;SDS011;26310;50.278;19.032;2023-03-21T14:05:48;18.00;;;9.37;;
40601;SDS011;26310;50.278;19.032;2023-03-21T14:10:53;21.63;;;11.10;;
40601;SDS011;26310;50.278;19.032;2023-03-21T14:15:59;25.30;;;14.17;;
40601;SDS011;26310;50.278;19.032;2023-03-21T14:21:15;19.70;;;11.00;;
40601;SDS011;26310;50.278;19.032;2023-03-21T14:26:31;24.13;;;12.30;;
40601;SDS011;26310;50.278;19.032;2023-03-21T14:31:36;21.30;;;12.00;;
40601;SDS011;26310;50.278;19.032;2023-03-21T14:36:40;19.80;;;10.97;;
40601;SDS011;26310;50.278;19.032;2023-03-21T14:42:07;22.17;;;12.33;;
40601;SDS011;26310;50.278;19.032;2023-03-21T14:47:16;19.17;;;10.50;;
40601;SDS011;26310;50.278;19.032;2023-03-21T14:52:31;14.70;;;9.23;;
40601;SDS011;26310;50.278;19.032;2023-03-21T14:57:34;24.13;;;11.60;;
40601;SDS011;26310;50.278;19.032;2023-03-21T15:02:38;22.73;;;13.47;;
40601;SDS011;26310;50.278;19.032;2023-03-21T15:07:44;17.40;;;10.50;;
40601;SDS011;26310;50.278;19.032;2023-03-21T15:13:09;16.77;;;9.90;;
40601;SDS011;26310;50.278;19.032;2023-03-21T15:18:17;18.07;;;11.77;;
40601;SDS011;26310;50.278;19.032;2023-03-21T15:23:30;23.40;;;12.00;;
40601;SDS011;26310;50.278;19.032;2023-03-21T15:28:35;12.63;;;7.67;;
40601;SDS011;26310;50.278;19.032;2023-03-21T15:33:38;14.37;;;8.43;;
40601;SDS011;26310;50.278;19.032;2023-03-21T15:38:41;12.90;;;7.10;;
40601;SDS011;26310;50.278;19.032;2023-03-21T15:48:50;21.43;;;9.93;;
40601;SDS011;26310;50.278;19.032;2023-03-21T15:54:29;14.87;;;9.57;;
40601;SDS011;26310;50.278;19.032;2023-03-21T15:59:35;17.30;;;9.97;;
40601;SDS011;26310;50.278;19.032;2023-03-21T16:04:58;18.27;;;10.77;;
40601;SDS011;26310;50.278;19.032;2023-03-21T16:10:04;18.00;;;10.27;;
40601;SDS011;26310;50.278;19.032;2023-03-21T16:15:09;15.17;;;9.93;;
40601;SDS011;26310;50.278;19.032;2023-03-21T16:20:16;16.60;;;9.90;;
40601;SDS011;26310;50.278;19.032;2023-03-21T16:25:21;15.57;;;8.83;;
40601;SDS011;26310;50.278;19.032;2023-03-21T16:30:25;16.33;;;9.57;;
40601;SDS011;26310;50.278;19.032;2023-03-21T16:35:28;19.90;;;10.40;;
40601;SDS011;26310;50.278;19.032;2023-03-21T16:40:35;15.63;;;9.93;;
40601;SDS011;26310;50.278;19.032;2023-03-21T16:45:40;14.97;;;9.20;;
40601;SDS011;26310;50.278;19.032;2023-03-21T16:50:47;17.03;;;9.67;;
40601;SDS011;26310;50.278;19.032;2023-03-21T16:55:50;20.00;;;10.67;;
40601;SDS011;26310;50.278;19.032;2023-03-21T17:00:53;16.67;;;9.50;;
40601;SDS011;26310;50.278;19.032;2023-03-21T17:05:56;14.70;;;9.50;;
40601;SDS011;26310;50.278;19.032;2023-03-21T17:10:59;14.07;;;9.23;;
40601;SDS011;26310;50.278;19.032;2023-03-21T17:16:08;21.93;;;8.97;;
40601;SDS011;26310;50.278;19.032;2023-03-21T17:21:16;15.83;;;8.87;;
40601;SDS011;26310;50.278;19.032;2023-03-21T17:26:22;19.30;;;9.27;;
40601;SDS011;26310;50.278;19.032;2023-03-21T17:31:27;18.90;;;9.10;;
40601;SDS011;26310;50.278;19.032;2023-03-21T17:36:35;16.17;;;9.77;;
40601;SDS011;26310;50.278;19.032;2023-03-21T17:41:39;19.13;;;9.47;;
40601;SDS011;26310;50.278;19.032;2023-03-21T17:46:42;25.67;;;10.53;;
40601;SDS011;26310;50.278;19.032;2023-03-21T17:51:46;20.67;;;10.07;;
40601;SDS011;26310;50.278;19.032;2023-03-21T17:56:49;18.43;;;10.27;;
40601;SDS011;26310;50.278;19.032;2023-03-21T18:01:52;23.53;;;12.50;;
40601;SDS011;26310;50.278;19.032;2023-03-21T18:06:55;17.80;;;10.53;;
40601;SDS011;26310;50.278;19.032;2023-03-21T18:12:02;23.40;;;12.30;;
40601;SDS011;26310;50.278;19.032;2023-03-21T18:17:05;22.37;;;13.07;;
40601;SDS011;26310;50.278;19.032;2023-03-21T18:22:08;24.63;;;13.77;;
40601;SDS011;26310;50.278;19.032;2023-03-21T18:27:11;26.03;;;12.07;;
40601;SDS011;26310;50.278;19.032;2023-03-21T18:32:15;22.20;;;12.80;;
40601;SDS011;26310;50.278;19.032;2023-03-21T18:37:18;24.07;;;11.80;;
40601;SDS011;26310;50.278;19.032;2023-03-21T18:42:23;19.10;;;12.13;;
40601;SDS011;26310;50.278;19.032;2023-03-21T18:47:31;29.93;;;15.37;;
40601;SDS011;26310;50.278;19.032;2023-03-21T18:52:35;23.73;;;14.03;;
40601;SDS011;26310;50.278;19.032;2023-03-21T18:57:38;28.53;;;13.10;;
40601;SDS011;26310;50.278;19.032;2023-03-21T19:02:44;21.60;;;12.33;;
40601;SDS011;26310;50.278;19.032;2023-03-21T19:07:51;26.77;;;14.13;;
40601;SDS011;26310;50.278;19.032;2023-03-21T19:12:54;22.37;;;12.57;;
40601;SDS011;26310;50.278;19.032;2023-03-21T19:17:57;21.87;;;12.77;;
40601;SDS011;26310;50.278;19.032;2023-03-21T19:23:20;22.60;;;11.70;;
40601;SDS011;26310;50.278;19.032;2023-03-21T19:28:23;24.80;;;12.23;;
40601;SDS011;26310;50.278;19.032;2023-03-21T19:33:26;19.93;;;11.17;;
40601;SDS011;26310;50.278;19.032;2023-03-21T19:38:29;25.80;;;11.63;;
40601;SDS011;26310;50.278;19.032;2023-03-21T19:43:32;20.30;;;11.97;;
40601;SDS011;26310;50.278;19.032;2023-03-21T19:48:35;31.60;;;15.23;;
40601;SDS011;26310;50.278;19.032;2023-03-21T19:53:39;28.70;;;14.73;;
40601;SDS011;26310;50.278;19.032;2023-03-21T19:58:42;28.80;;;14.97;;
40601;SDS011;26310;50.278;19.032;2023-03-21T20:03:45;28.23;;;15.23;;
40601;SDS011;26310;50.278;19.032;2023-03-21T20:08:48;25.47;;;13.17;;
40601;SDS011;26310;50.278;19.032;2023-03-21T20:14:12;28.20;;;14.70;;
40601;SDS011;26310;50.278;19.032;2023-03-21T20:19:14;32.40;;;16.03;;
40601;SDS011;26310;50.278;19.032;2023-03-21T20:24:17;28.47;;;17.40;;
40601;SDS011;26310;50.278;19.032;2023-03-21T20:29:20;30.00;;;15.27;;
40601;SDS011;26310;50.278;19.032;2023-03-21T20:34:44;26.07;;;15.20;;
40601;SDS011;26310;50.278;19.032;2023-03-21T20:39:47;31.47;;;16.30;;
40601;SDS011;26310;50.278;19.032;2023-03-21T20:44:50;25.20;;;12.70;;
40601;SDS011;26310;50.278;19.032;2023-03-21T20:49:59;39.10;;;14.23;;
40601;SDS011;26310;50.278;19.032;2023-03-21T20:55:04;34.30;;;16.33;;
40601;SDS011;26310;50.278;19.032;2023-03-21T21:00:09;31.17;;;16.03;;
40601;SDS011;26310;50.278;19.032;2023-03-21T21:05:16;28.30;;;16.43;;
40601;SDS011;26310;50.278;19.032;2023-03-21T21:10:32;27.37;;;12.90;;
40601;SDS011;26310;50.278;19.032;2023-03-21T21:15:54;28.13;;;14.70;;
40601;SDS011;26310;50.278;19.032;2023-03-21T21:20:58;27.77;;;13.83;;
40601;SDS011;26310;50.278;19.032;2023-03-21T21:26:07;27.63;;;15.30;;
40601;SDS011;26310;50.278;19.032;2023-03-21T21:31:15;32.73;;;16.97;;
40601;SDS011;26310;50.278;19.032;2023-03-21T21:36:19;32.83;;;16.70;;
40601;SDS011;26310;50.278;19.032;2023-03-21T21:41:23;29.60;;;15.17;;
40601;SDS011;26310;50.278;19.032;2023-03-21T21:46:26;30.27;;;16.03;;
40601;SDS011;26310;50.278;19.032;2023-03-21T21:51:29;31.07;;;15.30;;
40601;SDS011;26310;50.278;19.032;2023-03-21T21:56:34;28.67;;;14.30;;
40601;SDS011;26310;50.278;19.032;2023-03-21T22:01:39;25.13;;;14.63;;
40601;SDS011;26310;50.278;19.032;2023-03-21T22:06:43;31.33;;;14.20;;
40601;SDS011;26310;50.278;19.032;2023-03-21T22:11:48;27.63;;;14.97;;
40601;SDS011;26310;50.278;19.032;2023-03-21T22:16:51;26.23;;;12.90;;
40601;SDS011;26310;50.278;19.032;2023-03-21T22:21:54;22.37;;;13.00;;
40601;SDS011;26310;50.278;19.032;2023-03-21T22:26:58;28.27;;;14.57;;
40601;SDS011;26310;50.278;19.032;2023-03-21T22:32:01;24.67;;;13.93;;
40601;SDS011;26310;50.278;19.032;2023-03-21T22:37:04;28.20;;;15.37;;
40601;SDS011;26310;50.278;19.032;2023-03-21T22:42:07;29.70;;;15.53;;
40601;SDS011;26310;50.278;19.032;2023-03-21T22:47:10;28.80;;;15.53;;
40601;SDS011;26310;50.278;19.032;2023-03-21T22:52:13;37.87;;;18.87;;
40601;SDS011;26310;50.278;19.032;2023-03-21T22:57:16;38.90;;;20.67;;
40601;SDS011;26310;50.278;19.032;2023-03-21T23:02:21;43.30;;;20.80;;
40601;SDS011;26310;50.278;19.032;2023-03-21T23:07:24;42.90;;;20.87;;
40601;SDS011;26310;50.278;19.032;2023-03-21T23:12:26;33.63;;;18.93;;
40601;SDS011;26310;50.278;19.032;2023-03-21T23:17:29;36.67;;;18.60;;
40601;SDS011;26310;50.278;19.032;2023-03-21T23:22:34;35.43;;;18.87;;
40601;SDS011;26310;50.278;19.032;2023-03-21T23:27:37;41.70;;;19.50;;
40601;SDS011;26310;50.278;19.032;2023-03-21T23:32:40;40.80;;;18.97;;
40601;SDS011;26310;50.278;19.032;2023-03-21T23:37:43;40.57;;;19.13;;
40601;SDS011;26310;50.278;19.032;2023-03-21T23:42:53;42.60;;;19.10;;
40601;SDS011;26310;50.278;19.032;2023-03-21T23:47:56;35.03;;;18.73;;
40601;SDS011;26310;50.278;19.032;2023-03-21T23:52:59;39.47;;;20.67;;
40601;SDS011;26310;50.278;19.032;2023-03-21T23:58:02;33.17;;;17.97;;
